createdAt,value
2019-02-28T00:03:50.096Z,4.90
2019-02-28T00:13:55.839Z,4.90
2019-02-28T00:24:02.164Z,4.90
2019-02-28T00:34:07.792Z,4.70
2019-02-28T00:44:13.348Z,4.70
2019-02-28T00:54:18.808Z,4.80
2019-02-28T01:04:24.311Z,4.80
2019-02-28T01:14:32.469Z,4.60
2019-02-28T01:24:37.031Z,4.40
2019-02-28T01:34:42.607Z,4.40
2019-02-28T01:44:48.138Z,4.30
2019-02-28T01:54:53.618Z,4.40
2019-02-28T02:04:59.188Z,4.60
2019-02-28T02:15:08.048Z,4.60
2019-02-28T02:25:14.159Z,4.60
2019-02-28T02:35:19.846Z,4.50
2019-02-28T02:45:25.359Z,4.60
2019-02-28T02:55:30.951Z,4.50
2019-02-28T03:05:37.952Z,4.40
2019-02-28T03:15:43.558Z,4.50
2019-02-28T03:25:49.179Z,4.50
2019-02-28T03:35:54.732Z,4.60
2019-02-28T03:46:00.253Z,4.50
2019-02-28T03:56:05.951Z,4.50
2019-02-28T04:06:11.560Z,4.30
2019-02-28T04:16:18.692Z,4.30
2019-02-28T04:26:24.512Z,4.20
2019-02-28T04:36:35.427Z,4.20
2019-02-28T04:46:37.289Z,4.20
2019-02-28T04:56:45.554Z,4.10
2019-02-28T05:06:52.151Z,4.10
2019-02-28T05:16:57.180Z,3.90
2019-02-28T05:27:02.702Z,4.00
2019-02-28T05:37:16.662Z,4.00
2019-02-28T05:47:18.981Z,4.00
2019-02-28T05:57:24.512Z,4.00
2019-02-28T06:07:30.114Z,4.00
2019-02-28T06:17:35.746Z,4.20
2019-02-28T06:27:49.145Z,4.40
2019-02-28T06:37:49.568Z,4.60
2019-02-28T06:47:55.140Z,4.80
2019-02-28T06:58:00.672Z,5.10
2019-02-28T07:08:06.218Z,5.30
2019-02-28T07:18:11.751Z,5.60
2019-02-28T07:28:17.280Z,5.90
2019-02-28T07:38:25.570Z,6.10
2019-02-28T07:48:31.473Z,6.30
2019-02-28T07:58:36.983Z,6.40
2019-02-28T08:08:42.650Z,6.70
2019-02-28T08:18:51.143Z,6.90
2019-02-28T08:28:55.718Z,7.30
2019-02-28T08:39:01.319Z,7.60
2019-02-28T08:49:08.433Z,8.20
2019-02-28T08:59:18.426Z,8.50
2019-02-28T09:09:21.097Z,8.60
2019-02-28T09:19:26.760Z,9.00
2019-02-28T09:29:32.390Z,9.40
2019-02-28T09:39:39.093Z,9.80
2019-02-28T09:49:47.319Z,10.20
2019-02-28T09:59:51.805Z,10.70
2019-02-28T10:09:57.820Z,11.30
2019-02-28T10:20:04.292Z,11.50
2019-02-28T10:30:15.769Z,11.90
2019-02-28T10:40:25.832Z,12.30
2019-02-28T10:50:33.612Z,12.80
2019-02-28T11:00:42.284Z,13.00
2019-02-28T11:10:48.003Z,13.00
2019-02-28T11:20:53.645Z,13.40
2019-02-28T11:30:59.259Z,13.90
2019-02-28T11:41:04.840Z,14.00
2019-02-28T11:51:10.650Z,14.10
2019-02-28T12:01:16.416Z,14.40
2019-02-28T12:11:21.954Z,14.40
2019-02-28T12:21:27.591Z,14.30
2019-02-28T12:31:35.600Z,14.30
2019-02-28T12:41:40.336Z,14.40
2019-02-28T12:51:45.901Z,14.50
2019-02-28T13:01:51.672Z,14.90
2019-02-28T13:11:57.279Z,14.60
2019-02-28T13:22:02.900Z,14.60
2019-02-28T13:32:08.434Z,14.60
2019-02-28T13:42:15.641Z,14.80
2019-02-28T13:52:21.502Z,14.80
2019-02-28T14:02:29.783Z,14.80
2019-02-28T14:12:34.132Z,14.60
2019-02-28T14:22:42.711Z,14.70
2019-02-28T14:32:47.071Z,14.50
2019-02-28T14:42:52.873Z,14.80
2019-02-28T14:52:58.996Z,14.70
2019-02-28T15:03:06.397Z,14.60
2019-02-28T15:13:12.233Z,14.30
2019-02-28T15:23:18.161Z,13.90
2019-02-28T15:33:27.455Z,14.00
2019-02-28T15:43:32.432Z,13.80
2019-02-28T15:53:38.160Z,13.50
2019-02-28T16:03:48.401Z,13.00
2019-02-28T16:13:53.491Z,12.80
2019-02-28T16:24:02.008Z,12.50
2019-02-28T16:34:08.304Z,12.10
2019-02-28T16:44:14.492Z,11.90
2019-02-28T16:54:22.546Z,11.70
2019-02-28T17:04:28.306Z,11.50
2019-02-28T17:14:34.232Z,11.40
2019-02-28T17:24:40.304Z,11.20
2019-02-28T17:34:46.416Z,11.20
2019-02-28T17:44:56.627Z,11.10
2019-02-28T17:55:31.037Z,11.10
2019-02-28T18:05:54.397Z,11.10
2019-02-28T18:16:21.377Z,11.00
2019-02-28T18:26:43.688Z,10.90
2019-02-28T18:37:02.095Z,10.70
2019-02-28T18:47:08.072Z,10.50
2019-02-28T18:57:18.556Z,10.20
2019-02-28T19:07:24.692Z,10.20
2019-02-28T19:17:32.116Z,10.20
2019-02-28T19:27:38.203Z,10.10
2019-02-28T19:37:44.471Z,10.00
2019-02-28T19:47:53.790Z,10.00
2019-02-28T19:57:59.964Z,9.90
2019-02-28T20:08:05.880Z,9.70
2019-02-28T20:18:11.974Z,9.70
2019-02-28T20:28:18.000Z,9.70
2019-02-28T20:38:25.490Z,9.70
2019-02-28T20:48:31.529Z,9.70
2019-02-28T20:58:37.548Z,9.70
2019-02-28T21:08:43.592Z,9.60
2019-02-28T21:18:49.567Z,9.50
2019-02-28T21:28:55.321Z,9.40
2019-02-28T21:39:01.368Z,9.20
2019-02-28T21:49:11.464Z,9.10
2019-02-28T21:59:17.437Z,8.90
2019-02-28T22:09:23.165Z,8.80
2019-02-28T22:19:28.780Z,8.60
2019-02-28T22:29:34.420Z,8.40
2019-02-28T22:39:40.079Z,8.30
2019-02-28T22:49:45.699Z,8.20
2019-02-28T22:59:51.227Z,8.30
2019-02-28T23:09:56.904Z,8.30
2019-02-28T23:20:02.401Z,8.30
2019-02-28T23:30:19.931Z,8.30
2019-02-28T23:40:25.604Z,8.20
2019-02-28T23:50:31.298Z,8.20
